This is the latest recevied weather packets stored in our database for station/object KJ7BRE-1. If no packets are shown the sender has not sent any weather packets the latest 10 day(s).
| Time | Temp. | Humidity | Pressure | Rain* | Wind** | Luminosity | Snow |
|---|---|---|---|---|---|---|---|
| 1787862548 | 23.33° C | 49% | 1016.6 hPa | 0 mm | - | - | - |
| 1787862247 | 23.89° C | 48% | 1016.9 hPa | 0 mm | - | - | - |
| 1787861945 | 23.89° C | 48% | 1016.9 hPa | 0 mm | - | - | - |
| 1787861644 | 23.89° C | 49% | 1016.6 hPa | 0 mm | - | - | - |
| 1787861343 | 25° C | 47% | 1016.6 hPa | 0 mm | - | - | - |
| 1787861042 | 24.44° C | 47% | 1016.9 hPa | 0 mm | - | - | - |
| 1787860741 | 24.44° C | 48% | 1016.6 hPa | 0 mm | - | - | - |
| 1787860440 | 25° C | 47% | 1016.9 hPa | 0 mm | - | - | - |
| 1787860138 | 24.44° C | 48% | 1016.9 hPa | 0 mm | - | - | - |
| 1787747370 | 15° C | 82% | 1016.3 hPa | 0 mm | - | - | - |
| 1787747069 | 15° C | 82% | 1016.3 hPa | 0 mm | - | - | - |
| 1787746768 | 15° C | 82% | 1016.3 hPa | 0 mm | - | - | - |
| 1787746466 | 15° C | 82% | 1016.3 hPa | 0 mm | - | - | - |
| 1787746165 | 15° C | 82% | 1016.3 hPa | 0 mm | - | - | - |
| 1787745864 | 15° C | 82% | 1016.3 hPa | 0 mm | - | - | - |
| 1787745563 | 15° C | 82% | 1016.3 hPa | 0 mm | - | - | - |
| 1787745262 | 15° C | 82% | 1016.3 hPa | 0 mm | - | - | - |
| 1787744960 | 15° C | 82% | 1015.9 hPa | 0 mm | - | - | - |
| 1787744659 | 15° C | 82% | 1016.3 hPa | 0 mm | - | - | - |
| 1787744358 | 15° C | 82% | 1016.3 hPa | 0 mm | - | - | - |
| 1787744057 | 14.44° C | 83% | 1016.3 hPa | 0 mm | - | - | - |
| 1787743755 | 14.44° C | 83% | 1016.3 hPa | 0 mm | - | - | - |
| 1787743454 | 14.44° C | 84% | 1016.3 hPa | 0 mm | - | - | - |
| 1787743153 | 14.44° C | 84% | 1016.3 hPa | 0 mm | - | - | - |
| 1787742852 | 14.44° C | 84% | 1016.3 hPa | 0 mm | - | - | - |
* Rain latest hour (hover to see other rain measurements)
** Current wind speed in m/s (hover to see current wind gust speed)